createdAt,value
2022-08-28T00:02:25.405Z,1.50
2022-08-28T00:04:52.840Z,1.70
2022-08-28T00:07:20.191Z,1.55
2022-08-28T00:09:47.479Z,1.92
2022-08-28T00:12:14.804Z,1.60
2022-08-28T00:14:42.066Z,1.83
2022-08-28T00:17:09.321Z,1.77
2022-08-28T00:19:38.671Z,1.50
2022-08-28T00:22:07.525Z,1.75
2022-08-28T00:24:36.137Z,1.73
2022-08-28T00:27:22.712Z,1.60
2022-08-28T00:29:50.519Z,1.77
2022-08-28T00:32:17.881Z,2.08
2022-08-28T00:34:45.184Z,1.67
2022-08-28T00:37:12.548Z,1.77
2022-08-28T00:39:39.887Z,1.70
2022-08-28T00:42:08.196Z,2.40
2022-08-28T00:44:36.690Z,1.75
2022-08-28T00:47:04.154Z,1.73
2022-08-28T00:49:35.939Z,1.60
2022-08-28T00:52:12.194Z,1.83
2022-08-28T00:54:58.571Z,1.58
2022-08-28T00:57:28.606Z,1.85
2022-08-28T00:59:55.871Z,1.60
2022-08-28T01:02:23.216Z,1.80
2022-08-28T01:04:50.901Z,1.63
2022-08-28T01:07:18.501Z,1.50
2022-08-28T01:09:52.266Z,1.65
2022-08-28T01:12:32.114Z,1.90
2022-08-28T01:15:02.384Z,1.70
2022-08-28T01:17:32.944Z,1.42
2022-08-28T01:20:06.216Z,1.50
2022-08-28T01:22:44.382Z,1.63
2022-08-28T01:25:16.559Z,1.45
2022-08-28T01:27:44.148Z,1.60
2022-08-28T01:30:15.821Z,1.45
2022-08-28T01:32:47.208Z,1.45
2022-08-28T01:35:17.840Z,1.30
2022-08-28T01:37:45.750Z,1.73
2022-08-28T01:40:17.473Z,1.55
2022-08-28T01:42:44.977Z,1.55
2022-08-28T01:45:15.666Z,1.17
2022-08-28T01:47:44.672Z,1.58
2022-08-28T01:50:14.442Z,1.70
2022-08-28T01:52:42.065Z,1.05
2022-08-28T01:55:11.433Z,1.23
2022-08-28T01:57:46.602Z,0.90
2022-08-28T02:00:14.843Z,1.58
2022-08-28T02:02:42.359Z,1.85
2022-08-28T02:05:11.265Z,1.20
2022-08-28T02:07:41.310Z,1.17
2022-08-28T02:10:11.074Z,1.20
2022-08-28T02:12:38.950Z,1.30
2022-08-28T02:15:07.462Z,1.50
2022-08-28T02:17:34.938Z,1.20
2022-08-28T02:20:02.349Z,1.95
2022-08-28T02:22:29.711Z,1.70
2022-08-28T02:24:56.988Z,1.23
2022-08-28T02:27:24.286Z,1.30
2022-08-28T02:29:51.647Z,1.42
2022-08-28T02:32:18.990Z,2.33
2022-08-28T02:34:46.432Z,1.40
2022-08-28T02:37:13.739Z,1.20
2022-08-28T02:39:41.387Z,1.58
2022-08-28T02:42:08.618Z,1.55
2022-08-28T02:44:36.423Z,1.50
2022-08-28T02:47:05.283Z,1.27
2022-08-28T02:49:36.107Z,1.30
2022-08-28T02:52:06.719Z,1.10
2022-08-28T02:54:34.790Z,1.45
2022-08-28T02:57:02.077Z,1.33
2022-08-28T02:59:30.071Z,1.15
2022-08-28T03:01:57.981Z,1.45
2022-08-28T03:04:25.256Z,1.40
2022-08-28T03:06:52.506Z,1.65
2022-08-28T03:09:19.789Z,1.20
2022-08-28T03:11:47.090Z,1.42
2022-08-28T03:14:14.472Z,1.40
2022-08-28T03:16:41.830Z,1.75
2022-08-28T03:19:09.064Z,1.65
2022-08-28T03:21:36.371Z,1.85
2022-08-28T03:24:04.089Z,1.50
2022-08-28T03:26:31.434Z,1.58
2022-08-28T03:28:59.753Z,1.50
2022-08-28T03:31:30.105Z,1.48
2022-08-28T03:33:57.469Z,1.65
2022-08-28T03:36:27.042Z,1.95
2022-08-28T03:38:56.404Z,1.77
2022-08-28T03:41:25.437Z,1.55
2022-08-28T03:43:52.802Z,2.05
2022-08-28T03:46:23.840Z,1.42
2022-08-28T03:48:52.168Z,1.73
2022-08-28T03:51:29.990Z,1.98
2022-08-28T03:54:01.933Z,1.73
2022-08-28T03:56:30.679Z,1.90
2022-08-28T03:59:00.867Z,2.65
2022-08-28T04:01:28.550Z,2.63
2022-08-28T04:03:56.322Z,1.70
2022-08-28T04:06:23.784Z,2.33
2022-08-28T04:08:51.189Z,2.92
2022-08-28T04:11:18.582Z,2.53
2022-08-28T04:13:46.194Z,2.67
2022-08-28T04:16:16.646Z,2.65
2022-08-28T04:18:44.808Z,2.28
2022-08-28T04:21:15.403Z,2.50
2022-08-28T04:23:44.022Z,2.67
2022-08-28T04:26:14.684Z,2.88
2022-08-28T04:28:42.832Z,2.72
2022-08-28T04:31:10.175Z,1.88
2022-08-28T04:33:38.942Z,2.45
2022-08-28T04:36:11.222Z,2.25
2022-08-28T04:38:43.697Z,2.45
2022-08-28T04:41:14.202Z,2.53
2022-08-28T04:43:42.179Z,2.50
2022-08-28T04:46:12.511Z,2.50
2022-08-28T04:48:40.615Z,2.47
2022-08-28T04:51:09.861Z,2.92
2022-08-28T04:53:38.507Z,3.17
2022-08-28T04:56:08.488Z,2.80
2022-08-28T04:58:36.491Z,2.95
2022-08-28T05:01:11.190Z,2.72
2022-08-28T05:03:39.883Z,3.13
2022-08-28T05:06:07.779Z,2.83
2022-08-28T05:08:35.699Z,2.97
2022-08-28T05:11:24.533Z,2.95
2022-08-28T05:14:04.314Z,3.30
2022-08-28T05:16:34.386Z,3.03
2022-08-28T05:19:03.577Z,2.35
2022-08-28T05:21:30.826Z,3.13
2022-08-28T05:23:59.126Z,3.22
2022-08-28T05:26:28.354Z,3.13
2022-08-28T05:28:59.237Z,3.25
2022-08-28T05:31:29.597Z,3.00
2022-08-28T05:33:58.291Z,4.28
2022-08-28T05:36:32.528Z,3.50
2022-08-28T05:39:01.853Z,3.17
2022-08-28T05:41:30.725Z,4.03
2022-08-28T05:43:59.494Z,3.25
2022-08-28T05:46:28.253Z,3.20
2022-08-28T05:48:56.032Z,3.53
2022-08-28T05:51:26.269Z,3.22
2022-08-28T05:53:54.119Z,3.17
2022-08-28T05:56:24.888Z,3.20
2022-08-28T05:58:52.446Z,3.95
2022-08-28T06:01:28.690Z,3.35
2022-08-28T06:04:02.654Z,3.80
2022-08-28T06:06:34.194Z,3.47
2022-08-28T06:09:08.090Z,3.22
2022-08-28T06:11:35.727Z,3.53
2022-08-28T06:14:04.557Z,3.28
2022-08-28T06:16:32.615Z,3.22
2022-08-28T06:19:00.591Z,3.25
2022-08-28T06:21:29.003Z,3.35
2022-08-28T06:23:56.976Z,3.30
2022-08-28T06:26:24.460Z,3.05
2022-08-28T06:28:53.553Z,3.40
2022-08-28T06:31:24.602Z,3.58
2022-08-28T06:33:57.916Z,3.10
2022-08-28T06:36:27.894Z,3.42
2022-08-28T06:38:58.366Z,3.50
2022-08-28T06:41:28.737Z,3.35
2022-08-28T06:43:58.042Z,2.65
2022-08-28T06:46:26.629Z,3.53
2022-08-28T06:48:54.260Z,3.08
2022-08-28T06:51:23.166Z,3.25
2022-08-28T06:53:52.425Z,3.13
2022-08-28T06:56:26.215Z,2.80
2022-08-28T06:58:56.400Z,3.00
2022-08-28T07:01:35.305Z,3.08
2022-08-28T07:04:06.902Z,3.33
2022-08-28T07:06:39.637Z,3.25
2022-08-28T07:09:11.048Z,2.78
2022-08-28T07:11:39.515Z,2.97
2022-08-28T07:14:07.601Z,3.25
2022-08-28T07:16:38.302Z,2.80
2022-08-28T07:19:07.441Z,2.63
2022-08-28T07:21:38.670Z,3.45
2022-08-28T07:24:08.526Z,2.97
2022-08-28T07:26:36.179Z,3.53
2022-08-28T07:29:09.875Z,2.90
2022-08-28T07:31:46.258Z,2.63
2022-08-28T07:34:17.013Z,2.45
2022-08-28T07:36:44.995Z,3.33
2022-08-28T07:39:14.800Z,3.47
2022-08-28T07:41:43.081Z,2.97
2022-08-28T07:44:30.938Z,3.40
2022-08-28T07:47:01.107Z,3.30
2022-08-28T07:49:28.531Z,3.25
2022-08-28T07:51:56.461Z,3.10
2022-08-28T07:54:24.091Z,2.75
2022-08-28T07:56:52.863Z,2.97
2022-08-28T07:59:22.024Z,2.88
2022-08-28T08:01:51.614Z,3.08
2022-08-28T08:04:21.318Z,3.00
2022-08-28T08:06:53.235Z,3.28
2022-08-28T08:09:23.107Z,2.67
2022-08-28T08:11:50.925Z,2.80
2022-08-28T08:14:19.314Z,3.10
2022-08-28T08:16:48.071Z,2.53
2022-08-28T08:19:16.575Z,2.42
2022-08-28T08:21:46.460Z,2.58
2022-08-28T08:24:20.605Z,2.42
2022-08-28T08:26:50.809Z,2.95
2022-08-28T08:29:32.025Z,2.90
2022-08-28T08:32:05.769Z,2.03
2022-08-28T08:34:40.723Z,2.45
2022-08-28T08:37:08.890Z,2.58
2022-08-28T08:39:37.299Z,2.47
2022-08-28T08:42:10.403Z,3.17
2022-08-28T08:44:47.624Z,2.78
2022-08-28T08:47:47.179Z,3.40
2022-08-28T08:50:25.815Z,2.08
2022-08-28T08:53:24.462Z,2.75
2022-08-28T08:55:54.319Z,2.85
2022-08-28T08:58:39.963Z,2.67
2022-08-28T09:01:28.793Z,2.50
2022-08-28T09:04:11.597Z,2.50
2022-08-28T09:07:20.548Z,2.90
2022-08-28T09:09:53.380Z,2.80
2022-08-28T09:12:29.507Z,2.13
2022-08-28T09:15:12.771Z,1.95
2022-08-28T09:17:47.922Z,1.88
2022-08-28T09:20:21.447Z,3.88
2022-08-28T09:23:00.088Z,6.50
2022-08-28T09:25:51.450Z,3.45
2022-08-28T09:28:31.079Z,2.35
2022-08-28T09:31:00.779Z,3.13
2022-08-28T09:33:44.993Z,3.20
2022-08-28T09:36:29.706Z,2.75
2022-08-28T09:39:18.350Z,2.90
2022-08-28T09:42:11.691Z,1.92
2022-08-28T09:44:56.990Z,2.47
2022-08-28T09:47:57.139Z,2.35
2022-08-28T09:50:31.820Z,3.42
2022-08-28T09:53:16.001Z,2.55
2022-08-28T09:56:08.418Z,2.58
2022-08-28T09:58:42.609Z,3.15
2022-08-28T10:01:49.821Z,2.38
2022-08-28T10:04:41.767Z,2.60
2022-08-28T10:07:13.392Z,2.47
2022-08-28T10:09:54.738Z,2.55
2022-08-28T10:12:52.400Z,2.30
2022-08-28T10:16:09.621Z,2.72
2022-08-28T10:18:44.610Z,5.25
2022-08-28T10:21:28.081Z,2.55
2022-08-28T10:24:27.746Z,2.63
2022-08-28T10:27:01.901Z,1.83
2022-08-28T10:30:05.864Z,2.15
2022-08-28T10:33:12.896Z,2.00
2022-08-28T10:36:01.974Z,2.50
2022-08-28T10:38:40.121Z,2.72
2022-08-28T10:41:13.416Z,2.60
2022-08-28T10:43:48.086Z,2.40
2022-08-28T10:46:34.963Z,2.33
2022-08-28T10:49:27.021Z,2.25
2022-08-28T10:52:05.176Z,2.78
2022-08-28T10:54:57.644Z,2.35
2022-08-28T10:57:45.940Z,2.72
2022-08-28T11:00:18.085Z,2.10
2022-08-28T11:03:00.835Z,2.45
2022-08-28T11:05:56.314Z,2.05
2022-08-28T11:08:35.193Z,2.45
2022-08-28T11:11:06.651Z,2.35
2022-08-28T11:13:56.055Z,2.35
2022-08-28T11:16:28.265Z,2.13
2022-08-28T11:19:25.035Z,2.40
2022-08-28T11:22:02.750Z,2.20
2022-08-28T11:24:43.722Z,1.90
2022-08-28T11:27:31.110Z,1.50
2022-08-28T11:30:04.281Z,2.28
2022-08-28T11:32:31.507Z,1.98
2022-08-28T11:35:00.316Z,1.58
2022-08-28T11:37:51.435Z,1.85
2022-08-28T11:40:40.747Z,1.75
2022-08-28T11:43:17.027Z,1.65
2022-08-28T11:45:47.378Z,1.52
2022-08-28T11:48:33.725Z,1.90
2022-08-28T11:51:06.989Z,2.17
2022-08-28T11:54:21.213Z,1.75
2022-08-28T11:57:12.747Z,2.00
2022-08-28T11:59:47.006Z,2.03
2022-08-28T12:02:39.722Z,2.10
2022-08-28T12:05:11.107Z,2.08
2022-08-28T12:07:41.242Z,2.00
2022-08-28T12:10:20.618Z,2.33
2022-08-28T12:12:47.876Z,2.58
2022-08-28T12:15:27.412Z,2.33
2022-08-28T12:18:13.051Z,1.55
2022-08-28T12:21:19.313Z,1.70
2022-08-28T12:24:09.041Z,1.80
2022-08-28T12:26:42.558Z,1.83
2022-08-28T12:29:37.532Z,1.90
2022-08-28T12:32:36.374Z,1.90
2022-08-28T12:35:15.296Z,1.58
2022-08-28T12:37:52.319Z,2.03
2022-08-28T12:40:41.816Z,1.77
2022-08-28T12:43:15.204Z,1.85
2022-08-28T12:45:48.611Z,1.30
2022-08-28T12:48:27.657Z,1.30
2022-08-28T12:51:07.845Z,2.95
2022-08-28T12:53:44.427Z,3.35
2022-08-28T12:56:14.694Z,2.60
2022-08-28T12:58:42.883Z,1.80
2022-08-28T13:01:31.637Z,1.55
2022-08-28T13:04:02.428Z,1.63
2022-08-28T13:06:36.414Z,1.50
2022-08-28T13:09:07.250Z,1.70
2022-08-28T13:11:37.875Z,2.10
2022-08-28T13:14:08.029Z,1.70
2022-08-28T13:16:45.154Z,1.77
2022-08-28T13:19:35.165Z,1.52
2022-08-28T13:22:27.551Z,1.63
2022-08-28T13:25:00.068Z,1.50
2022-08-28T13:27:28.201Z,1.45
2022-08-28T13:30:04.507Z,2.13
2022-08-28T13:32:34.223Z,1.50
2022-08-28T13:35:07.560Z,1.80
2022-08-28T13:37:48.092Z,1.52
2022-08-28T13:40:53.440Z,1.60
2022-08-28T13:43:11.367Z,1.20
2022-08-28T13:45:43.463Z,1.13
2022-08-28T13:48:18.213Z,1.65
2022-08-28T13:50:49.476Z,1.80
2022-08-28T13:53:20.232Z,1.52
2022-08-28T13:55:50.205Z,1.13
2022-08-28T13:58:17.686Z,1.10
2022-08-28T14:00:47.593Z,1.67
2022-08-28T14:03:34.785Z,1.15
2022-08-28T14:06:03.996Z,1.40
2022-08-28T14:08:31.503Z,1.42
2022-08-28T14:10:58.930Z,1.30
2022-08-28T14:13:27.684Z,1.10
2022-08-28T14:15:56.536Z,1.60
2022-08-28T14:18:25.747Z,1.23
2022-08-28T14:20:53.307Z,1.20
2022-08-28T14:23:20.589Z,1.40
2022-08-28T14:25:49.128Z,1.60
2022-08-28T14:28:17.278Z,2.15
2022-08-28T14:30:50.269Z,1.67
2022-08-28T14:33:20.875Z,1.23
2022-08-28T14:35:49.166Z,1.13
2022-08-28T14:38:16.879Z,1.20
2022-08-28T14:40:44.913Z,1.50
2022-08-28T14:43:13.686Z,1.15
2022-08-28T14:45:49.668Z,1.42
2022-08-28T14:48:18.459Z,1.38
2022-08-28T14:50:48.254Z,1.30
2022-08-28T14:53:16.959Z,1.55
2022-08-28T14:55:49.752Z,1.20
2022-08-28T14:58:18.915Z,1.50
2022-08-28T15:00:50.038Z,1.40
2022-08-28T15:03:18.715Z,0.90
2022-08-28T15:05:46.708Z,1.42
2022-08-28T15:08:16.904Z,1.25
2022-08-28T15:10:45.224Z,1.52
2022-08-28T15:13:12.978Z,2.28
2022-08-28T15:15:42.574Z,1.95
2022-08-28T15:18:11.679Z,2.22
2022-08-28T15:20:44.978Z,2.05
2022-08-28T15:23:15.169Z,1.10
2022-08-28T15:25:42.824Z,1.50
2022-08-28T15:28:10.719Z,1.20
2022-08-28T15:30:39.259Z,1.15
2022-08-28T15:33:09.130Z,1.55
2022-08-28T15:35:37.185Z,1.92
2022-08-28T15:38:05.908Z,1.35
2022-08-28T15:40:52.869Z,1.15
2022-08-28T15:43:20.619Z,1.50
2022-08-28T15:45:48.043Z,1.35
2022-08-28T15:48:15.573Z,1.33
2022-08-28T15:50:43.805Z,1.38
2022-08-28T15:53:11.303Z,1.42
2022-08-28T15:55:38.586Z,1.75
2022-08-28T15:58:13.626Z,1.85
2022-08-28T16:00:42.559Z,1.75
2022-08-28T16:03:13.160Z,1.40
2022-08-28T16:05:40.908Z,1.58
2022-08-28T16:08:10.300Z,1.88
2022-08-28T16:10:37.985Z,1.38
2022-08-28T16:13:06.570Z,1.25
2022-08-28T16:15:34.462Z,1.65
2022-08-28T16:18:01.796Z,1.60
2022-08-28T16:20:29.162Z,1.77
2022-08-28T16:22:56.413Z,2.05
2022-08-28T16:25:23.637Z,1.67
2022-08-28T16:27:50.852Z,2.00
2022-08-28T16:30:18.688Z,1.40
2022-08-28T16:32:46.933Z,1.50
2022-08-28T16:35:15.675Z,2.13
2022-08-28T16:37:43.288Z,1.77
2022-08-28T16:40:11.819Z,2.10
2022-08-28T16:42:42.295Z,1.80
2022-08-28T16:45:19.027Z,1.55
2022-08-28T16:47:46.283Z,1.48
2022-08-28T16:50:14.219Z,2.30
2022-08-28T16:52:41.631Z,1.48
2022-08-28T16:55:12.055Z,1.20
2022-08-28T16:57:40.049Z,1.40
2022-08-28T17:00:12.323Z,1.75
2022-08-28T17:02:41.860Z,1.80
2022-08-28T17:05:09.763Z,1.50
2022-08-28T17:07:37.351Z,1.60
2022-08-28T17:10:04.936Z,1.33
2022-08-28T17:12:32.624Z,1.85
2022-08-28T17:15:00.507Z,1.48
2022-08-28T17:17:28.662Z,1.48
2022-08-28T17:19:56.493Z,1.45
2022-08-28T17:22:32.841Z,1.30
2022-08-28T17:25:07.592Z,1.65
2022-08-28T17:27:36.709Z,2.00
2022-08-28T17:30:05.040Z,1.35
2022-08-28T17:32:32.520Z,3.80
2022-08-28T17:35:00.189Z,1.55
2022-08-28T17:37:27.830Z,1.85
2022-08-28T17:39:55.261Z,1.55
2022-08-28T17:42:22.917Z,1.27
2022-08-28T17:44:50.451Z,1.38
2022-08-28T17:47:18.336Z,2.10
2022-08-28T17:49:53.499Z,1.20
2022-08-28T17:52:20.843Z,1.35
2022-08-28T17:54:48.101Z,1.75
2022-08-28T17:57:16.614Z,1.50
2022-08-28T17:59:43.973Z,1.60
2022-08-28T18:02:11.610Z,2.58
2022-08-28T18:04:38.926Z,2.28
2022-08-28T18:07:06.197Z,1.65
2022-08-28T18:09:33.495Z,1.90
2022-08-28T18:12:02.523Z,2.00
2022-08-28T18:14:30.145Z,1.83
2022-08-28T18:16:57.498Z,1.45
2022-08-28T18:19:25.506Z,1.70
2022-08-28T18:21:53.627Z,2.30
2022-08-28T18:24:21.095Z,3.30
2022-08-28T18:26:48.703Z,3.10
2022-08-28T18:29:16.328Z,4.00
2022-08-28T18:31:43.967Z,2.88
2022-08-28T18:34:11.977Z,2.55
2022-08-28T18:36:41.622Z,2.47
2022-08-28T18:39:10.291Z,2.00
2022-08-28T18:41:44.054Z,1.98
2022-08-28T18:44:13.861Z,2.00
2022-08-28T18:46:42.565Z,1.73
2022-08-28T18:49:11.443Z,2.22
2022-08-28T18:51:40.438Z,1.70
2022-08-28T18:54:07.911Z,2.03
2022-08-28T18:56:36.155Z,2.13
2022-08-28T18:59:06.461Z,1.73
2022-08-28T19:01:33.998Z,1.90
2022-08-28T19:04:01.510Z,2.05
2022-08-28T19:06:28.977Z,1.98
2022-08-28T19:08:56.259Z,1.58
2022-08-28T19:11:23.950Z,1.63
2022-08-28T19:13:51.348Z,2.10
2022-08-28T19:16:20.521Z,1.70
2022-08-28T19:18:51.471Z,2.22
2022-08-28T19:21:20.831Z,1.90
2022-08-28T19:23:55.770Z,1.67
2022-08-28T19:26:24.919Z,2.25
2022-08-28T19:28:53.074Z,1.98
2022-08-28T19:31:20.659Z,2.00
2022-08-28T19:33:48.267Z,2.08
2022-08-28T19:36:15.801Z,2.00
2022-08-28T19:38:43.342Z,1.67
2022-08-28T19:41:11.800Z,1.90
2022-08-28T19:43:43.114Z,1.75
2022-08-28T19:46:19.838Z,1.75
2022-08-28T19:48:52.265Z,1.70
2022-08-28T19:51:22.476Z,1.70
2022-08-28T19:53:59.038Z,1.52
2022-08-28T19:56:29.024Z,1.95
2022-08-28T19:58:59.404Z,2.08
2022-08-28T20:01:29.724Z,1.75
2022-08-28T20:03:59.007Z,1.88
2022-08-28T20:06:28.040Z,1.50
2022-08-28T20:08:55.988Z,1.35
2022-08-28T20:11:30.216Z,1.70
2022-08-28T20:14:04.255Z,1.70
2022-08-28T20:16:38.421Z,1.80
2022-08-28T20:19:08.032Z,1.15
2022-08-28T20:21:38.221Z,1.67
2022-08-28T20:24:10.245Z,2.17
2022-08-28T20:26:37.727Z,2.40
2022-08-28T20:29:07.075Z,1.77
2022-08-28T20:31:35.419Z,1.58
2022-08-28T20:34:02.835Z,1.88
2022-08-28T20:36:30.071Z,1.88
2022-08-28T20:38:57.437Z,1.58
2022-08-28T20:41:24.894Z,1.38
2022-08-28T20:43:52.228Z,1.45
2022-08-28T20:46:19.721Z,1.58
2022-08-28T20:48:47.296Z,2.13
2022-08-28T20:51:14.654Z,1.80
2022-08-28T20:53:42.015Z,1.52
2022-08-28T20:56:10.495Z,1.90
2022-08-28T20:58:38.113Z,1.60
2022-08-28T21:01:05.659Z,1.77
2022-08-28T21:03:33.124Z,1.65
2022-08-28T21:06:00.482Z,2.10
2022-08-28T21:08:27.796Z,1.65
2022-08-28T21:10:55.074Z,2.05
2022-08-28T21:13:23.291Z,1.15
2022-08-28T21:15:50.550Z,1.83
2022-08-28T21:18:18.054Z,1.70
2022-08-28T21:20:46.489Z,1.70
2022-08-28T21:23:14.021Z,1.58
2022-08-28T21:25:41.599Z,2.55
2022-08-28T21:28:08.984Z,1.95
2022-08-28T21:30:37.471Z,1.70
2022-08-28T21:33:05.257Z,1.83
2022-08-28T21:35:32.768Z,2.05
2022-08-28T21:38:00.148Z,1.90
2022-08-28T21:40:30.464Z,1.90
2022-08-28T21:42:58.067Z,2.05
2022-08-28T21:45:25.465Z,2.08
2022-08-28T21:47:52.878Z,2.20
2022-08-28T21:50:20.695Z,2.38
2022-08-28T21:52:48.010Z,2.05
2022-08-28T21:55:16.231Z,1.90
2022-08-28T21:57:44.607Z,1.95
2022-08-28T22:00:17.285Z,1.83
2022-08-28T22:02:44.873Z,1.95
2022-08-28T22:05:13.116Z,1.63
2022-08-28T22:07:45.041Z,1.70
2022-08-28T22:10:12.434Z,1.83
2022-08-28T22:12:39.871Z,1.33
2022-08-28T22:15:07.568Z,1.80
2022-08-28T22:17:34.887Z,1.70
2022-08-28T22:20:02.806Z,2.10
2022-08-28T22:22:48.592Z,1.80
2022-08-28T22:25:15.917Z,2.30
2022-08-28T22:27:43.252Z,1.70
2022-08-28T22:30:11.017Z,1.77
2022-08-28T22:32:38.401Z,2.00
2022-08-28T22:35:06.184Z,1.58
2022-08-28T22:37:33.596Z,1.60
2022-08-28T22:40:00.885Z,2.00
2022-08-28T22:42:28.259Z,2.08
2022-08-28T22:44:55.598Z,2.00
2022-08-28T22:47:23.438Z,2.95
2022-08-28T22:49:50.715Z,2.53
2022-08-28T22:52:18.071Z,2.10
2022-08-28T22:54:45.606Z,2.10
2022-08-28T22:57:14.183Z,1.77
2022-08-28T22:59:42.142Z,1.35
2022-08-28T23:02:12.016Z,1.65
2022-08-28T23:04:39.787Z,1.77
2022-08-28T23:07:07.158Z,1.38
2022-08-28T23:09:36.097Z,1.42
2022-08-28T23:12:07.766Z,1.75
2022-08-28T23:14:35.036Z,2.15
2022-08-28T23:17:02.431Z,1.67
2022-08-28T23:19:30.336Z,1.45
2022-08-28T23:21:57.636Z,1.45
2022-08-28T23:24:24.969Z,1.42
2022-08-28T23:26:52.439Z,1.73
2022-08-28T23:29:19.734Z,1.60
2022-08-28T23:31:48.001Z,1.45
2022-08-28T23:34:15.430Z,1.45
2022-08-28T23:36:43.504Z,1.50
2022-08-28T23:39:11.359Z,1.42
2022-08-28T23:41:38.935Z,1.77
2022-08-28T23:44:09.010Z,1.40
2022-08-28T23:46:36.857Z,1.40
2022-08-28T23:49:09.102Z,1.20
2022-08-28T23:51:36.420Z,1.75
2022-08-28T23:54:03.811Z,1.45
2022-08-28T23:56:31.735Z,1.75
2022-08-28T23:58:59.102Z,2.45
